createdAt,value
2022-09-26T00:01:35.519Z,1007.67
2022-09-26T00:03:57.017Z,1007.61
2022-09-26T00:06:15.132Z,1007.57
2022-09-26T00:08:57.255Z,1007.55
2022-09-26T00:11:18.429Z,1007.48
2022-09-26T00:14:04.322Z,1007.49
2022-09-26T00:16:20.741Z,1007.46
2022-09-26T00:18:39.128Z,1007.43
2022-09-26T00:20:57.211Z,1007.44
2022-09-26T00:23:16.208Z,1007.41
2022-09-26T00:25:33.357Z,1007.45
2022-09-26T00:27:53.943Z,1007.46
2022-09-26T00:30:12.035Z,1007.43
2022-09-26T00:32:31.406Z,1007.40
2022-09-26T00:34:49.524Z,1007.45
2022-09-26T00:37:10.641Z,1007.43
2022-09-26T00:39:28.706Z,1007.41
2022-09-26T00:41:46.757Z,1007.39
2022-09-26T00:44:07.399Z,1007.39
2022-09-26T00:46:28.099Z,1007.38
2022-09-26T00:48:48.567Z,1007.36
2022-09-26T00:51:14.727Z,1007.32
2022-09-26T00:52:14.634Z,1007.27
2022-09-26T00:54:31.199Z,1007.34
2022-09-26T00:56:59.558Z,1007.30
2022-09-26T00:59:20.166Z,1007.28
2022-09-26T01:01:52.048Z,1007.26
2022-09-26T01:05:03.565Z,1007.21
2022-09-26T01:06:03.724Z,1007.17
2022-09-26T01:08:25.251Z,1007.08
2022-09-26T01:10:43.320Z,1007.09
2022-09-26T01:13:03.938Z,1007.06
2022-09-26T01:15:20.514Z,1007.05
2022-09-26T01:17:40.180Z,1007.01
2022-09-26T01:19:57.936Z,1007.01
2022-09-26T01:22:17.659Z,1006.96
2022-09-26T01:24:38.769Z,1006.88
2022-09-26T01:26:55.355Z,1006.83
2022-09-26T01:29:15.680Z,1006.79
2022-09-26T01:31:34.758Z,1006.80
2022-09-26T01:33:55.625Z,1006.73
2022-09-26T01:36:14.692Z,1006.76
2022-09-26T01:38:35.307Z,1006.77
2022-09-26T01:40:54.285Z,1006.75
2022-09-26T01:43:12.342Z,1006.75
2022-09-26T01:45:30.538Z,1006.71
2022-09-26T01:47:50.094Z,1006.73
2022-09-26T01:50:10.153Z,1006.69
2022-09-26T01:52:30.362Z,1006.71
2022-09-26T01:54:48.482Z,1006.65
2022-09-26T01:57:09.560Z,1006.62
2022-09-26T01:59:30.194Z,1006.61
2022-09-26T02:01:46.782Z,1006.55
2022-09-26T02:04:07.315Z,1006.56
2022-09-26T02:06:27.927Z,1006.52
2022-09-26T02:08:48.515Z,1006.54
2022-09-26T02:11:05.098Z,1006.56
2022-09-26T02:13:21.671Z,1006.48
2022-09-26T02:15:39.795Z,1006.45
2022-09-26T02:17:57.518Z,1006.40
2022-09-26T02:20:15.489Z,1006.36
2022-09-26T02:22:36.047Z,1006.32
2022-09-26T02:24:52.648Z,1006.25
2022-09-26T02:27:10.741Z,1006.24
2022-09-26T02:29:31.840Z,1006.23
2022-09-26T02:31:48.485Z,1006.15
2022-09-26T02:34:06.491Z,1006.15
2022-09-26T02:36:24.877Z,1006.10
2022-09-26T02:38:45.567Z,1006.13
2022-09-26T02:41:23.119Z,1006.14
2022-09-26T02:43:44.703Z,1006.11
2022-09-26T02:46:02.884Z,1006.03
2022-09-26T02:48:19.436Z,1006.01
2022-09-26T02:50:37.532Z,1005.99
2022-09-26T02:52:58.079Z,1005.98
2022-09-26T02:55:18.679Z,1005.99
2022-09-26T02:57:36.758Z,1006.03
2022-09-26T02:59:57.365Z,1006.06
2022-09-26T03:02:13.955Z,1006.06
2022-09-26T03:04:34.613Z,1006.10
2022-09-26T03:06:54.630Z,1006.10
2022-09-26T03:09:15.315Z,1006.11
2022-09-26T03:11:49.710Z,1006.16
2022-09-26T03:14:06.264Z,1006.12
2022-09-26T03:16:23.760Z,1006.05
2022-09-26T03:18:42.245Z,1006.09
2022-09-26T03:20:58.880Z,1006.03
2022-09-26T03:23:15.768Z,1006.05
2022-09-26T03:25:35.711Z,1006.00
2022-09-26T03:28:57.745Z,1005.99
2022-09-26T03:31:15.926Z,1006.02
2022-09-26T03:33:36.436Z,1006.01
2022-09-26T03:35:57.060Z,1005.97
2022-09-26T03:38:14.536Z,1005.95
2022-09-26T03:40:31.783Z,1005.98
2022-09-26T03:42:52.318Z,1005.89
2022-09-26T03:45:08.912Z,1005.87
2022-09-26T03:47:24.405Z,1005.86
2022-09-26T03:49:40.986Z,1005.82
2022-09-26T03:51:57.564Z,1005.82
2022-09-26T03:54:15.686Z,1005.78
2022-09-26T03:56:36.299Z,1005.76
2022-09-26T03:58:54.341Z,1005.70
2022-09-26T04:01:12.474Z,1005.70
2022-09-26T04:03:31.481Z,1005.60
2022-09-26T04:05:49.599Z,1005.62
2022-09-26T04:08:07.681Z,1005.63
2022-09-26T04:10:28.306Z,1005.61
2022-09-26T04:12:46.376Z,1005.58
2022-09-26T04:15:04.515Z,1005.53
2022-09-26T04:17:25.087Z,1005.53
2022-09-26T04:19:45.686Z,1005.57
2022-09-26T04:22:03.767Z,1005.54
2022-09-26T04:24:24.368Z,1005.54
2022-09-26T04:26:42.500Z,1005.51
2022-09-26T04:29:02.462Z,1005.49
2022-09-26T04:31:20.277Z,1005.45
2022-09-26T04:33:36.825Z,1005.42
2022-09-26T04:35:57.410Z,1005.43
2022-09-26T04:38:22.234Z,1005.41
2022-09-26T04:40:42.674Z,1005.41
2022-09-26T04:42:55.689Z,1005.37
2022-09-26T04:45:12.251Z,1005.35
2022-09-26T04:47:28.836Z,1005.34
2022-09-26T04:49:47.688Z,1005.32
2022-09-26T05:16:08.909Z,1005.42
2022-09-26T05:19:43.268Z,1005.34
2022-09-26T05:23:12.846Z,1005.23
2022-09-26T05:25:50.303Z,1005.18
2022-09-26T05:31:34.600Z,1005.19
2022-09-26T05:39:42.650Z,1005.21
2022-09-26T05:43:10.134Z,1005.20
2022-09-26T05:46:44.648Z,1005.14
2022-09-26T05:50:53.853Z,1005.13
2022-09-26T05:55:14.072Z,1005.05
2022-09-26T05:59:15.321Z,1005.05
2022-09-26T06:01:32.007Z,1005.05
2022-09-26T06:04:08.042Z,1005.05
2022-09-26T06:06:24.910Z,1005.00
2022-09-26T06:09:37.582Z,1005.04
2022-09-26T06:12:28.378Z,1005.03
2022-09-26T06:16:19.300Z,1005.07
2022-09-26T06:18:43.854Z,1005.06
2022-09-26T06:22:10.739Z,1005.04
2022-09-26T06:24:28.737Z,1004.99
2022-09-26T06:26:46.847Z,1005.00
2022-09-26T06:31:45.287Z,1004.91
2022-09-26T06:41:25.169Z,1004.85
2022-09-26T06:47:08.877Z,1004.77
2022-09-26T06:50:36.922Z,1004.81
2022-09-26T06:53:48.482Z,1004.82
2022-09-26T06:57:31.765Z,1004.74
2022-09-26T06:59:49.853Z,1004.72
2022-09-26T07:02:25.887Z,1004.66
2022-09-26T07:04:49.566Z,1004.67
2022-09-26T07:07:05.880Z,1004.67
2022-09-26T07:09:44.139Z,1004.65
2022-09-26T07:12:19.984Z,1004.68
2022-09-26T07:14:33.085Z,1004.71
2022-09-26T07:16:58.895Z,1004.67
2022-09-26T07:19:14.710Z,1004.66
2022-09-26T07:21:31.276Z,1004.64
2022-09-26T07:23:51.735Z,1004.65
2022-09-26T07:30:16.670Z,1004.61
2022-09-26T07:32:34.154Z,1004.62
2022-09-26T07:40:18.866Z,1004.53
2022-09-26T07:42:38.355Z,1004.44
2022-09-26T07:47:24.679Z,1004.39
2022-09-26T08:00:38.388Z,1004.41
2022-09-26T08:08:34.528Z,1004.44
2022-09-26T08:10:54.272Z,1004.44
2022-09-26T08:18:43.959Z,1004.43
2022-09-26T08:31:11.909Z,1004.43
2022-09-26T08:51:56.009Z,1004.08
2022-09-26T08:56:48.087Z,1004.09
2022-09-26T09:05:16.056Z,1003.95
2022-09-26T09:09:19.904Z,1003.96
2022-09-26T09:12:10.669Z,1003.85
2022-09-26T09:15:51.512Z,1003.85
2022-09-26T09:29:19.513Z,1003.68
2022-09-26T09:34:37.458Z,1003.57
2022-09-26T09:37:40.858Z,1003.57
2022-09-26T09:39:58.642Z,1003.54
2022-09-26T09:52:15.682Z,1003.43
2022-09-26T09:58:26.120Z,1003.37
2022-09-26T10:00:49.059Z,1003.32
2022-09-26T10:04:01.406Z,1003.32
2022-09-26T10:06:45.136Z,1003.30
2022-09-26T10:07:18.926Z,1003.27
2022-09-26T10:14:04.811Z,1003.19
2022-09-26T10:16:22.267Z,1003.15
2022-09-26T10:19:17.681Z,1003.11
2022-09-26T10:21:54.802Z,1003.10
2022-09-26T10:24:09.483Z,1003.09
2022-09-26T10:26:31.316Z,1003.11
2022-09-26T10:47:02.824Z,1002.97
2022-09-26T10:50:41.038Z,1002.92
2022-09-26T10:52:57.532Z,1002.93
2022-09-26T10:55:20.187Z,1002.77
2022-09-26T10:57:31.536Z,1002.78
2022-09-26T10:59:48.066Z,1002.79
2022-09-26T11:02:13.075Z,1002.74
2022-09-26T11:05:15.975Z,1002.70
2022-09-26T11:10:49.217Z,1002.69
2022-09-26T11:13:44.342Z,1002.63
2022-09-26T11:16:00.969Z,1002.64
2022-09-26T11:20:01.768Z,1002.58
2022-09-26T11:30:19.989Z,1002.45
2022-09-26T12:24:33.720Z,1001.82
2022-09-26T12:46:15.783Z,1001.36
2022-09-26T12:51:31.277Z,1001.30
2022-09-26T13:33:54.349Z,1000.91
2022-09-26T13:36:52.936Z,1000.85
2022-09-26T13:39:10.012Z,1000.80
2022-09-26T13:45:30.470Z,1000.74
2022-09-26T13:56:08.992Z,1000.70
2022-09-26T14:09:15.113Z,1000.52
2022-09-26T14:49:51.615Z,1000.10
2022-09-26T14:52:29.573Z,1000.10
2022-09-26T14:58:19.147Z,1000.04
2022-09-26T15:22:38.303Z,999.87
2022-09-26T17:54:36.205Z,999.06
2022-09-26T18:05:59.752Z,998.95
2022-09-26T18:34:32.679Z,998.94
2022-09-26T18:38:25.147Z,998.88
2022-09-26T18:40:43.861Z,998.88
2022-09-26T18:43:01.296Z,998.86
2022-09-26T18:45:19.418Z,998.84
2022-09-26T18:47:37.473Z,998.82
2022-09-26T18:49:56.552Z,998.85
2022-09-26T18:53:26.095Z,998.84
2022-09-26T18:55:44.145Z,998.86
2022-09-26T18:58:04.727Z,998.86
2022-09-26T19:00:23.832Z,998.79
2022-09-26T19:02:44.587Z,998.81
2022-09-26T19:04:58.765Z,998.78
2022-09-26T19:17:43.464Z,998.75
2022-09-26T19:19:59.751Z,998.74
2022-09-26T19:22:17.873Z,998.73
2022-09-26T19:25:45.267Z,998.73
2022-09-26T19:28:04.342Z,998.67
2022-09-26T19:30:22.436Z,998.66
2022-09-26T19:55:12.138Z,998.48
2022-09-26T19:59:08.121Z,998.43
